Time;durP1;ratioP1;P1;durP2;ratioP2;P2;SDS_P1;SDS_P2;PMS_P1;PMS_P2;Temp;Humidity;BMP_temperature;BMP_pressure;BME280_temperature;BME280_humidity;BME280_pressure;Samples;Min_cycle;Max_cycle;Signal;HPM_P1;HPM_P2
2021/01/18 00:09:12;;;;;;;53.7;25.7;;;;;;;-10.24;75.93555;99221.22;;;;
2021/01/18 00:19:09;;;;;;;51;26.1;;;;;;;-10.43;76.84668;99229.3;;;;
2021/01/18 00:29:06;;;;;;;45;26;;;;;;;-10.39;77.23926;99231.44;;;;
2021/01/18 00:39:02;;;;;;;67.4;32;;;;;;;-10.6;76.53418;99232.82;;;;
2021/01/18 00:48:59;;;;;;;64;25.4;;;;;;;-10.66;76.63184;99239.48;;;;
2021/01/18 00:58:56;;;;;;;50.7;27.6;;;;;;;-10.72;76.68457;99263.52;;;;
2021/01/18 01:08:52;;;;;;;47.1;23.5;;;;;;;-10.96;76.68262;99260.8;;;;
2021/01/18 01:18:49;;;;;;;54.8;26.7;;;;;;;-11.1;77.5459;99271.77;;;;
2021/01/18 01:28:45;;;;;;;31.7;19.6;;;;;;;-11.02;77.14453;99249.23;;;;
2021/01/18 01:38:42;;;;;;;50.7;25.8;;;;;;;-11.19;77.08105;99252.7;;;;
2021/01/18 01:48:39;;;;;;;50.9;23.3;;;;;;;-11.32;76.86328;99263.52;;;;
2021/01/18 01:58:35;;;;;;;42.9;24.7;;;;;;;-11.26;77.05762;99281.12;;;;
2021/01/18 02:08:32;;;;;;;60.1;26.2;;;;;;;-11.3;77.35059;99271.98;;;;
2021/01/18 02:18:39;;;;;;;49.2;21.4;;;;;;;-11.31;77.49707;99272.13;;;;
2021/01/18 02:28:32;;;;;;;39.4;20.8;;;;;;;-11.34;77.4707;99260.24;;;;
2021/01/18 02:38:28;;;;;;;48.3;21.4;;;;;;;-11.16;77.43945;99256.78;;;;
2021/01/18 02:48:21;;;;;;;41.1;19.8;;;;;;;-11.14;77.52832;99244.45;;;;
2021/01/18 02:58:14;;;;;;;47.2;24.1;;;;;;;-11.25;77.38184;99238.54;;;;
2021/01/18 03:08:11;;;;;;;50.5;22.1;;;;;;;-11.2;77.38867;99247.64;;;;
2021/01/18 03:18:07;;;;;;;39.6;18.5;;;;;;;-11.15;77.29004;99237.61;;;;
2021/01/18 03:28:04;;;;;;;37.7;18.4;;;;;;;-11.13;77.29492;99235.66;;;;
2021/01/18 03:38:00;;;;;;;33.7;17.1;;;;;;;-10.99;76.50684;99248.09;;;;
2021/01/18 03:47:59;;;;;;;29.8;17.5;;;;;;;-10.99;76.73145;99237.69;;;;
2021/01/18 03:57:53;;;;;;;33.5;16.6;;;;;;;-11.01;76.71777;99237.86;;;;
2021/01/18 04:07:50;;;;;;;22.9;13.6;;;;;;;-11.13;76.85547;99233.05;;;;
2021/01/18 04:17:46;;;;;;;27.3;14.3;;;;;;;-11.03;77.04688;99224.17;;;;
2021/01/18 04:27:43;;;;;;;21;12.7;;;;;;;-11.05;77.04199;99217.49;;;;
2021/01/18 04:37:40;;;;;;;23.8;12.2;;;;;;;-11.05;77.23438;99205.3;;;;
2021/01/18 04:47:36;;;;;;;29.2;17.7;;;;;;;-11.05;76.9668;99207.09;;;;
2021/01/18 04:57:33;;;;;;;37.9;19.7;;;;;;;-10.99;77.0752;99209.88;;;;
2021/01/18 05:07:29;;;;;;;43.7;16.5;;;;;;;-10.98;76.95801;99206.31;;;;
2021/01/18 05:17:26;;;;;;;44.1;18.5;;;;;;;-11.1;76.97852;99222.33;;;;
2021/01/18 05:27:23;;;;;;;38.7;18.8;;;;;;;-10.9;76.51172;99227.19;;;;
2021/01/18 05:37:19;;;;;;;37.6;23.2;;;;;;;-11.15;76.98926;99235;;;;
2021/01/18 05:47:16;;;;;;;35.3;21.8;;;;;;;-11.22;77.02246;99224.4;;;;
2021/01/18 05:57:13;;;;;;;34.5;18.2;;;;;;;-11.16;77.06445;99235.97;;;;
2021/01/18 06:07:09;;;;;;;30.2;17.9;;;;;;;-11.14;76.13574;99213.23;;;;
2021/01/18 06:17:05;;;;;;;34.7;17.2;;;;;;;-11.5;75.96289;99238.52;;;;
2021/01/18 06:27:02;;;;;;;27.8;16.9;;;;;;;-11.86;76.41113;99233.39;;;;
2021/01/18 06:36:59;;;;;;;35.4;14.6;;;;;;;-11.97;75.65137;99235.38;;;;
2021/01/18 06:46:55;;;;;;;37.8;16.9;;;;;;;-12.3;76.45898;99232.5;;;;
2021/01/18 06:56:52;;;;;;;44.2;22.8;;;;;;;-12.63;77.79492;99240.88;;;;
2021/01/18 07:06:48;;;;;;;46.4;24.9;;;;;;;-13.07;78.7998;99239.86;;;;
2021/01/18 07:16:44;;;;;;;47.9;23.8;;;;;;;-13.26;78.78516;99249.52;;;;
2021/01/18 07:26:46;;;;;;;37.1;18.7;;;;;;;-13.24;78.18164;99247.59;;;;
2021/01/18 07:36:37;;;;;;;58;21.8;;;;;;;-13.12;77.91602;99254.25;;;;
2021/01/18 07:46:33;;;;;;;37.5;21.7;;;;;;;-12.96;76.19629;99259.61;;;;
2021/01/18 07:56:30;;;;;;;32.6;16.7;;;;;;;-12.65;75.5166;99271.36;;;;
2021/01/18 08:06:26;;;;;;;38.6;20.7;;;;;;;-12.29;73.47559;99267.08;;;;
2021/01/18 08:16:22;;;;;;;37.7;20.6;;;;;;;-12.1;72.94141;99253.13;;;;
2021/01/18 08:26:19;;;;;;;35.9;19.8;;;;;;;-11.86;72.85742;99256.78;;;;
2021/01/18 08:36:15;;;;;;;39.5;17.9;;;;;;;-11.42;71.88184;99259.38;;;;
2021/01/18 08:46:12;;;;;;;42.9;21.4;;;;;;;-11.53;71.55371;99270.02;;;;
2021/01/18 08:56:08;;;;;;;51.3;23.2;;;;;;;-10.71;70.15723;99283.38;;;;
2021/01/18 09:06:05;;;;;;;34.7;18;;;;;;;-10.15;69.64941;99272.37;;;;
2021/01/18 09:16:02;;;;;;;33.9;18.1;;;;;;;-9.8;68.86719;99273.88;;;;
2021/01/18 09:26:02;;;;;;;35.4;23.4;;;;;;;-9.29;67.85254;99263.11;;;;
2021/01/18 09:35:55;;;;;;;28.2;18;;;;;;;-9.46;66.45215;99252.84;;;;
2021/01/18 09:45:52;;;;;;;38.2;19.2;;;;;;;-9.22;63.43359;99237.17;;;;
2021/01/18 09:55:48;;;;;;;57.5;25.5;;;;;;;-9.22;62.58984;99234.56;;;;
2021/01/18 10:05:45;;;;;;;49.7;29.6;;;;;;;-8.55;62.1709;99209.71;;;;
2021/01/18 10:15:42;;;;;;;53.9;30.8;;;;;;;-8.17;60.59082;99211.44;;;;
2021/01/18 10:25:39;;;;;;;64.4;34.6;;;;;;;-7.63;59.92871;99213.19;;;;
2021/01/18 10:35:36;;;;;;;51.5;34.4;;;;;;;-7.18;58.44043;99198.18;;;;
2021/01/18 10:45:33;;;;;;;37.3;25.7;;;;;;;-7.38;58.31348;99199.69;;;;
2021/01/18 10:55:30;;;;;;;35.8;22.6;;;;;;;-6.86;57.01367;99198.83;;;;
2021/01/18 11:05:27;;;;;;;45;24.3;;;;;;;-6.36;56.37305;99200.67;;;;
2021/01/18 11:15:24;;;;;;;46.6;27.1;;;;;;;-6.17;56.49707;99200.89;;;;
2021/01/18 11:25:21;;;;;;;39.2;27.4;;;;;;;-6.02;56.08008;99189.54;;;;
2021/01/18 11:35:18;;;;;;;41;23.9;;;;;;;-6.35;57.62793;99183.95;;;;
2021/01/18 11:45:15;;;;;;;31.7;24.2;;;;;;;-6.29;58.90137;99181.41;;;;
2021/01/18 11:55:12;;;;;;;40.7;24.4;;;;;;;-6.04;57.62793;99170.56;;;;
2021/01/18 12:05:09;;;;;;;40.4;25.9;;;;;;;-6.06;58.61816;99154.99;;;;
2021/01/18 12:15:06;;;;;;;45.4;25.7;;;;;;;-6.44;60.41602;99135.23;;;;
2021/01/18 12:25:03;;;;;;;45.9;28.7;;;;;;;-6.02;60.40039;99147.56;;;;
2021/01/18 12:35:00;;;;;;;53;25.8;;;;;;;-6.12;60.60449;99145.25;;;;
2021/01/18 12:44:59;;;;;;;51.9;28.4;;;;;;;-6.35;61.06055;99144.63;;;;
2021/01/18 12:54:55;;;;;;;59.7;33.2;;;;;;;-6.25;61.52344;99143.3;;;;
2021/01/18 13:04:52;;;;;;;39.5;27.7;;;;;;;-6.54;63.21094;99137.34;;;;
2021/01/18 13:14:49;;;;;;;48.2;33.1;;;;;;;-6.18;61.40137;99125.02;;;;
2021/01/18 13:24:46;;;;;;;57.5;33.4;;;;;;;-6.35;62.38965;99124.43;;;;
2021/01/18 13:34:43;;;;;;;48.3;26.9;;;;;;;-6.75;63.11328;99127.63;;;;
2021/01/18 13:44:40;;;;;;;48.6;30.2;;;;;;;-6.89;63.35352;99125.84;;;;
2021/01/18 13:54:37;;;;;;;43.5;29.8;;;;;;;-7.03;64.10352;99130.09;;;;
2021/01/18 14:04:34;;;;;;;64.8;34.3;;;;;;;-6.99;63.7832;99114.83;;;;
2021/01/18 14:14:31;;;;;;;45.2;28.6;;;;;;;-7.34;64.94727;99122.44;;;;
2021/01/18 14:24:28;;;;;;;52.8;33.7;;;;;;;-7.52;65.64648;99108.88;;;;
2021/01/18 14:34:25;;;;;;;43.1;31.1;;;;;;;-7.67;65.58984;99094.98;;;;
2021/01/18 14:44:22;;;;;;;45.7;33.7;;;;;;;-8.01;66.51074;99098.05;;;;
2021/01/18 14:54:19;;;;;;;102.8;56.9;;;;;;;-8.19;66.2666;99095.74;;;;
2021/01/18 15:04:15;;;;;;;58.4;32.2;;;;;;;-8.62;67.2041;99099.03;;;;
2021/01/18 15:14:13;;;;;;;64;33.1;;;;;;;-8.98;66.82129;99108.36;;;;
2021/01/18 15:24:09;;;;;;;59;31.9;;;;;;;-9.4;67.67188;99119.94;;;;
2021/01/18 15:34:06;;;;;;;56;33.8;;;;;;;-9.72;68.36328;99120.03;;;;
2021/01/18 15:44:04;;;;;;;56.8;30.7;;;;;;;-10.27;69.56543;99133.75;;;;
2021/01/18 15:54:00;;;;;;;71.3;34.9;;;;;;;-10.59;71.09082;99132.91;;;;
2021/01/18 16:03:55;;;;;;;57.6;32.6;;;;;;;-10.75;71.15234;99129.28;;;;
2021/01/18 16:13:52;;;;;;;67.9;37.2;;;;;;;-10.83;73.35059;99111.03;;;;
2021/01/18 16:23:50;;;;;;;76.1;46.7;;;;;;;-10.79;74.32129;99108.92;;;;
2021/01/18 16:33:45;;;;;;;78.9;40;;;;;;;-10.65;75.24902;99105.7;;;;
2021/01/18 16:43:42;;;;;;;67.6;34.9;;;;;;;-10.27;76.34961;99099.06;;;;
2021/01/18 16:53:39;;;;;;;67.8;36.9;;;;;;;-9.86;75.62793;99081.59;;;;
2021/01/18 17:03:35;;;;;;;91.1;44.9;;;;;;;-9.57;75.08984;99087.05;;;;
2021/01/18 17:13:31;;;;;;;100.1;52.8;;;;;;;-9.31;74.63184;99087.64;;;;
2021/01/18 17:23:28;;;;;;;73.4;42.3;;;;;;;-9.1;74.34375;99088.85;;;;
2021/01/18 17:33:25;;;;;;;62;41.3;;;;;;;-8.9;73.85156;99079.61;;;;
2021/01/18 17:43:21;;;;;;;114.1;56.9;;;;;;;-8.77;72.77441;99080.67;;;;
2021/01/18 17:53:18;;;;;;;81.8;48.7;;;;;;;-8.61;72.47754;99090.22;;;;
2021/01/18 18:03:15;;;;;;;60.6;35.3;;;;;;;-8.51;72.46191;99084.77;;;;
2021/01/18 18:13:12;;;;;;;53.5;32.5;;;;;;;-8.5;73.04688;99086.4;;;;
2021/01/18 18:23:10;;;;;;;81.3;40.3;;;;;;;-8.51;73.14355;99077.74;;;;
2021/01/18 18:33:05;;;;;;;77.1;40.9;;;;;;;-8.53;74.13184;99066.63;;;;
2021/01/18 18:43:02;;;;;;;75.4;44;;;;;;;-8.3;73.91406;99069.26;;;;
2021/01/18 18:53:00;;;;;;;118.9;65.3;;;;;;;-8.38;74.27832;99070.13;;;;
2021/01/18 19:02:56;;;;;;;92.1;56.7;;;;;;;-8.22;74.50098;99075.19;;;;
2021/01/18 19:12:52;;;;;;;112.9;62.2;;;;;;;-8.12;74.27148;99074.94;;;;
2021/01/18 19:22:49;;;;;;;113;53.7;;;;;;;-7.95;73.75977;99067.78;;;;
2021/01/18 19:32:46;;;;;;;64.3;39.3;;;;;;;-7.91;72.8916;99069.06;;;;
2021/01/18 19:42:43;;;;;;;100;53.3;;;;;;;-7.84;74.0166;99075.17;;;;
2021/01/18 19:52:40;;;;;;;138.3;81.6;;;;;;;-7.86;74.70508;99069.32;;;;
2021/01/18 20:02:37;;;;;;;139.6;80;;;;;;;-7.79;74.70703;99070.23;;;;
2021/01/18 20:12:37;;;;;;;143.5;86.9;;;;;;;-7.81;74.01172;99064.38;;;;
2021/01/18 20:22:31;;;;;;;163.2;93.3;;;;;;;-7.69;74.11914;99057.7;;;;
2021/01/18 20:32:27;;;;;;;174.4;106.7;;;;;;;-7.77;74.9375;99052.54;;;;
2021/01/18 20:42:24;;;;;;;168.9;102.2;;;;;;;-7.57;74.15234;99053.66;;;;
2021/01/18 20:52:23;;;;;;;165;101.6;;;;;;;-7.49;73.86133;99042.27;;;;
2021/01/18 21:02:18;;;;;;;173.6;108;;;;;;;-7.55;74.31738;99025.49;;;;
2021/01/18 21:12:15;;;;;;;171.9;105.5;;;;;;;-7.51;74.68066;99034.61;;;;
2021/01/18 21:22:14;;;;;;;168.8;102.5;;;;;;;-7.43;74.11035;99029.29;;;;
2021/01/18 21:32:09;;;;;;;157.4;97.3;;;;;;;-7.52;75.1875;99019.08;;;;
2021/01/18 21:42:06;;;;;;;150.6;111.4;;;;;;;-7.49;75.55078;99022.14;;;;
2021/01/18 21:52:03;;;;;;;178.7;110.1;;;;;;;-7.4;74.71094;98994.08;;;;
2021/01/18 22:02:04;;;;;;;201.9;110.2;;;;;;;-7.42;74.75098;99001.28;;;;
2021/01/18 22:11:56;;;;;;;158.4;95.2;;;;;;;-7.6;75.80176;98993.81;;;;
2021/01/18 22:21:54;;;;;;;145.3;95.1;;;;;;;-7.39;75.26563;98986.02;;;;
2021/01/18 22:31:52;;;;;;;173.5;96.1;;;;;;;-7.25;75.65918;98977.33;;;;
2021/01/18 22:41:48;;;;;;;150.2;85.8;;;;;;;-7.18;75.26074;98970.36;;;;
2021/01/18 22:51:44;;;;;;;133.1;88.9;;;;;;;-7.06;74.95703;98960.22;;;;
2021/01/18 23:01:41;;;;;;;148.6;90.5;;;;;;;-7.02;75.41797;98947.56;;;;
2021/01/18 23:11:38;;;;;;;143.4;82.7;;;;;;;-6.84;75.16992;98938.29;;;;
2021/01/18 23:21:35;;;;;;;154;86.6;;;;;;;-6.77;75.64844;98928.64;;;;
2021/01/18 23:31:32;;;;;;;133.1;93.7;;;;;;;-6.72;75.5166;98918.42;;;;
2021/01/18 23:41:29;;;;;;;176.5;114.9;;;;;;;-6.67;76.51074;98907.38;;;;
2021/01/18 23:51:26;;;;;;;165.1;102.3;;;;;;;-6.51;76.53906;98901.85;;;;
